Time;durP1;ratioP1;P1;durP2;ratioP2;P2;SDS_P1;SDS_P2;PMS_P1;PMS_P2;Temp;Humidity;BMP_temperature;BMP_pressure;BME280_temperature;BME280_humidity;BME280_pressure;Samples;Min_cycle;Max_cycle;Signal;HPM_P1;HPM_P2
2021/12/27 00:00:17;;;;;;;263.60;108.47;;;;;;;1.38;100.00;98878.91;4946315;28;20951;-87
2021/12/27 00:02:44;;;;;;;281.37;113.50;;;;;;;2.88;100.00;99107.47;4986541;28;20442;-86
2021/12/27 00:05:11;;;;;;;298.93;122.90;;;;;;;2.63;100.00;99050.72;4988827;28;20407;-86
2021/12/27 00:07:38;;;;;;;290.60;115.90;;;;;;;2.98;100.00;99084.84;4976410;28;20462;-86
2021/12/27 00:10:06;;;;;;;214.27;80.43;;;;;;;1.37;100.00;98841.41;4976250;28;20204;-86
2021/12/27 00:12:31;;;;;;;267.47;107.83;;;;;;;2.29;100.00;98968.50;4968830;28;20423;-86
2021/12/27 00:14:56;;;;;;;269.70;107.87;;;;;;;2.21;100.00;98998.69;4983901;28;20807;-87
2021/12/27 00:17:22;;;;;;;286.20;114.43;;;;;;;1.78;100.00;98939.94;4974435;28;20580;-89
2021/12/27 00:19:49;;;;;;;300.00;106.77;;;;;;;-1.08;100.00;98448.88;4976501;28;20177;-86
2021/12/27 00:22:16;;;;;;;312.37;122.00;;;;;;;2.54;100.00;99075.94;4972639;28;20191;-85
2021/12/27 00:24:46;;;;;;;332.13;133.40;;;;;;;2.00;100.00;98982.22;4953831;28;20501;-86
2021/12/27 00:27:17;;;;;;;281.80;112.87;;;;;;;-0.30;100.00;98604.50;4969535;28;20469;-87
2021/12/27 00:29:45;;;;;;;270.13;109.40;;;;;;;1.62;100.00;98879.78;4973961;28;20542;-87
2021/12/27 00:32:11;;;;;;;222.23;80.67;;;;;;;2.14;100.00;99017.34;4987470;28;20414;-87
2021/12/27 00:34:36;;;;;;;269.00;106.90;;;;;;;-1.26;100.00;98401.22;4974245;28;20513;-87
2021/12/27 00:37:07;;;;;;;218.70;77.93;;;;;;;2.78;100.00;99095.13;4985660;28;20176;-87
2021/12/27 00:39:33;;;;;;;259.17;105.33;;;;;;;-1.14;100.00;98431.06;4969323;28;20163;-86
2021/12/27 00:41:59;;;;;;;269.33;106.27;;;;;;;2.66;100.00;99090.94;4976383;28;20455;-87
2021/12/27 00:44:25;;;;;;;261.97;107.87;;;;;;;0.18;100.00;98677.66;4975819;28;20199;-86
2021/12/27 00:46:52;;;;;;;262.20;109.77;;;;;;;2.71;100.00;99075.47;4998657;28;20172;-86
2021/12/27 00:49:17;;;;;;;262.53;107.10;;;;;;;0.40;100.00;98678.44;4985935;28;20486;-85
2021/12/27 00:51:43;;;;;;;241.93;88.80;;;;;;;1.48;100.00;98872.94;4988618;28;20977;-87
2021/12/27 00:54:11;;;;;;;263.47;103.80;;;;;;;2.75;100.00;99081.53;4973688;28;20228;-86
2021/12/27 00:56:36;;;;;;;246.00;102.03;;;;;;;2.71;100.00;99087.97;4978764;28;20190;-89
2021/12/27 00:59:02;;;;;;;258.33;105.57;;;;;;;2.09;100.00;98945.41;4978935;28;20426;-87
2021/12/27 01:01:27;;;;;;;249.07;95.27;;;;;;;2.73;100.00;99076.44;4990048;28;20179;-87
2021/12/27 01:03:53;;;;;;;282.70;116.50;;;;;;;0.56;100.00;98700.28;4968495;28;20171;-86
2021/12/27 01:06:18;;;;;;;268.80;109.80;;;;;;;2.25;100.00;98983.16;4981313;28;20187;-85
2021/12/27 01:08:44;;;;;;;268.47;108.80;;;;;;;1.74;100.00;98913.91;4991393;28;20422;-86
2021/12/27 01:11:21;;;;;;;251.23;104.13;;;;;;;-0.26;100.00;98567.53;4963861;28;20807;-86
2021/12/27 01:14:00;;;;;;;270.83;109.97;;;;;;;2.27;100.00;98956.66;4989079;28;20178;-86
2021/12/27 01:16:25;;;;;;;246.13;98.10;;;;;;;0.56;100.00;98711.13;4973784;28;20755;-85
2021/12/27 01:18:51;;;;;;;286.63;117.73;;;;;;;1.76;100.00;98907.38;4979140;28;20503;-86
2021/12/27 01:21:20;;;;;;;290.13;117.37;;;;;;;1.15;100.00;98796.66;4971487;28;20180;-87
2021/12/27 01:23:49;;;;;;;310.43;119.10;;;;;;;2.96;100.00;99073.91;4985532;28;20628;-86
2021/12/27 01:26:15;;;;;;;278.33;111.73;;;;;;;1.24;100.00;98769.03;4981538;28;20834;-87
2021/12/27 01:28:41;;;;;;;272.63;112.97;;;;;;;1.07;100.00;98788.63;4974064;28;20431;-87
2021/12/27 01:31:07;;;;;;;248.07;92.93;;;;;;;2.63;100.00;99091.59;4979658;28;20266;-86
2021/12/27 01:33:33;;;;;;;274.23;109.57;;;;;;;1.57;100.00;98883.53;4969343;28;20435;-87
2021/12/27 01:36:01;;;;;;;267.93;108.87;;;;;;;0.19;100.00;98636.22;4988633;28;20198;-85
2021/12/27 01:38:26;;;;;;;261.40;98.53;;;;;;;1.84;100.00;98954.47;4980710;28;20194;-88
2021/12/27 01:40:56;;;;;;;269.83;109.83;;;;;;;2.33;100.00;99050.34;4991509;28;20959;-88
2021/12/27 01:43:24;;;;;;;289.87;121.30;;;;;;;2.61;100.00;99068.09;4981823;28;20175;-87
2021/12/27 01:45:56;;;;;;;274.40;111.40;;;;;;;-0.56;100.00;98534.63;4966883;28;20438;-86
2021/12/27 01:48:24;;;;;;;284.57;112.70;;;;;;;0.44;100.00;98687.00;4991518;28;20505;-86
2021/12/27 01:50:53;;;;;;;247.33;100.57;;;;;;;0.85;100.00;98765.47;4976369;28;20469;-86
2021/12/27 01:53:20;;;;;;;255.83;105.60;;;;;;;1.10;100.00;98753.09;4976399;28;20427;-88
2021/12/27 01:55:46;;;;;;;244.57;97.10;;;;;;;-0.21;100.00;98558.78;4972055;28;20546;-89
2021/12/27 01:58:12;;;;;;;250.00;103.50;;;;;;;-1.13;100.00;98390.59;4965450;28;20966;-88
2021/12/27 02:00:41;;;;;;;250.70;98.20;;;;;;;2.39;100.00;98994.94;4973708;28;20951;-88
2021/12/27 02:03:07;;;;;;;233.17;92.27;;;;;;;2.18;100.00;98946.91;4961614;28;20241;-87
2021/12/27 02:05:33;;;;;;;233.67;93.30;;;;;;;-0.06;100.00;98638.59;4969140;28;20435;-87
2021/12/27 02:07:58;;;;;;;180.73;66.37;;;;;;;0.48;100.00;98717.19;4968352;28;20670;-86
2021/12/27 02:10:25;;;;;;;259.90;100.63;;;;;;;-0.52;100.00;98534.94;4979078;28;20199;-85
2021/12/27 02:12:51;;;;;;;233.07;93.97;;;;;;;1.47;100.00;98854.63;4973516;28;20180;-87
2021/12/27 02:15:18;;;;;;;220.17;88.20;;;;;;;0.77;100.00;98713.41;4962633;28;20842;-88
2021/12/27 02:17:48;;;;;;;229.03;92.63;;;;;;;2.58;100.00;99017.94;4985168;28;20183;-87
2021/12/27 02:20:40;;;;;;;220.57;89.10;;;;;;;-0.36;100.00;98509.59;4970762;28;20426;-86
2021/12/27 02:23:12;;;;;;;214.90;86.17;;;;;;;2.67;100.00;99036.03;4900222;29;20434;-86
2021/12/27 02:25:38;;;;;;;204.53;81.37;;;;;;;2.23;100.00;98989.66;4915213;29;21046;-87
2021/12/27 02:28:08;;;;;;;218.10;87.83;;;;;;;0.36;100.00;98656.56;4915335;29;20791;-87
2021/12/27 02:30:35;;;;;;;214.40;86.60;;;;;;;2.64;100.00;99037.47;4898827;29;20950;-89
2021/12/27 02:33:07;;;;;;;214.67;85.97;;;;;;;1.90;100.00;98907.47;4915022;29;20500;-87
2021/12/27 02:35:39;;;;;;;205.63;83.60;;;;;;;2.63;100.00;99035.75;4914644;29;20942;-84
2021/12/27 02:38:09;;;;;;;201.77;83.87;;;;;;;1.24;100.00;98794.78;4898594;29;20425;-86
2021/12/27 02:40:36;;;;;;;208.97;87.03;;;;;;;2.68;100.00;99022.78;4914514;29;20818;-86
2021/12/27 02:43:07;;;;;;;220.83;91.23;;;;;;;2.74;100.00;99029.84;4899278;29;20493;-86
2021/12/27 02:45:37;;;;;;;222.57;89.93;;;;;;;0.70;100.00;98716.19;4915384;29;20426;-87
2021/12/27 02:48:04;;;;;;;226.13;90.43;;;;;;;2.54;100.00;99030.09;4898670;29;20436;-87
2021/12/27 02:50:31;;;;;;;233.63;91.20;;;;;;;2.53;100.00;99045.88;4914877;29;20481;-86
2021/12/27 02:52:57;;;;;;;226.43;94.17;;;;;;;-0.99;100.00;98422.22;4901112;29;20548;-88
2021/12/27 02:55:24;;;;;;;205.87;81.73;;;;;;;0.00;100.00;98609.19;4908352;29;20602;-89
2021/12/27 02:57:50;;;;;;;211.80;85.57;;;;;;;0.95;100.00;98777.81;4889824;29;20454;-86
2021/12/27 03:00:33;;;;;;;207.07;83.97;;;;;;;2.46;100.00;99032.09;4917347;29;20520;-87
2021/12/27 03:03:00;;;;;;;197.73;80.43;;;;;;;-0.65;100.00;98548.13;4939696;29;20813;-88
2021/12/27 03:05:28;;;;;;;201.03;81.47;;;;;;;2.42;100.00;99010.16;4955215;28;20443;-86
2021/12/27 03:07:54;;;;;;;200.40;80.90;;;;;;;2.22;100.00;98982.97;4953947;28;20193;-86
2021/12/27 03:10:25;;;;;;;183.00;75.87;;;;;;;2.54;100.00;99020.13;4953718;28;20486;-88
2021/12/27 03:12:52;;;;;;;180.73;72.80;;;;;;;2.52;100.00;99017.53;4937802;29;20432;-88
2021/12/27 03:15:20;;;;;;;181.17;74.10;;;;;;;1.01;100.00;98787.34;4954496;29;20423;-86
2021/12/27 03:17:47;;;;;;;216.53;86.27;;;;;;;2.51;100.00;99020.78;4955864;28;20416;-87
2021/12/27 03:20:15;;;;;;;189.03;72.50;;;;;;;1.92;100.00;98953.38;4955584;28;20416;-86
2021/12/27 03:22:43;;;;;;;195.67;75.90;;;;;;;2.00;100.00;98929.81;4936994;29;20979;-88
2021/12/27 03:25:12;;;;;;;174.77;67.20;;;;;;;2.44;100.00;99028.63;4954803;28;20416;-86
2021/12/27 03:27:39;;;;;;;168.17;69.97;;;;;;;-0.08;100.00;98602.78;4953687;29;20416;-85
2021/12/27 03:30:11;;;;;;;250.77;87.67;;;;;;;1.81;100.00;98909.34;4954865;28;20499;-87
2021/12/27 03:32:37;;;;;;;226.30;92.93;;;;;;;1.00;100.00;98765.69;4955632;28;20420;-85
2021/12/27 03:35:12;;;;;;;202.73;76.23;;;;;;;-0.50;100.00;98552.47;4956807;28;20439;-88
2021/12/27 03:37:41;;;;;;;200.10;81.90;;;;;;;2.35;100.00;98993.03;4954087;29;20514;-87
2021/12/27 03:40:12;;;;;;;172.90;67.67;;;;;;;-1.40;100.00;98378.66;4953494;28;20428;-88
2021/12/27 03:42:39;;;;;;;172.30;70.97;;;;;;;2.39;100.00;99023.28;4938965;29;20436;-89
2021/12/27 03:45:07;;;;;;;168.97;68.03;;;;;;;1.82;100.00;98913.56;4957306;28;20447;-88
2021/12/27 03:47:33;;;;;;;188.50;78.60;;;;;;;1.87;100.00;98970.50;4958849;29;20420;-86
2021/12/27 03:49:58;;;;;;;263.17;103.30;;;;;;;1.51;100.00;98931.38;4956995;28;20478;-86
2021/12/27 03:52:24;;;;;;;195.33;85.93;;;;;;;2.07;100.00;98979.38;4956687;29;20180;-87
2021/12/27 03:54:49;;;;;;;172.00;72.33;;;;;;;-0.28;100.00;98640.28;4965344;28;20230;-88
2021/12/27 03:57:16;;;;;;;125.30;47.10;;;;;;;2.16;100.00;99052.44;4942232;29;20188;-87
2021/12/27 04:02:16;;;;;;;185.03;76.00;;;;;;;1.84;100.00;98986.91;4968304;29;20505;-86
2021/12/27 04:04:42;;;;;;;216.40;86.37;;;;;;;1.99;100.00;98953.91;4958734;29;20432;-84
2021/12/27 04:07:08;;;;;;;189.67;78.70;;;;;;;0.50;100.00;98723.13;4970377;29;20425;-85
2021/12/27 04:09:36;;;;;;;191.53;78.47;;;;;;;1.78;100.00;98910.88;4950282;29;20515;-86
2021/12/27 04:12:03;;;;;;;128.10;49.43;;;;;;;0.14;100.00;98655.78;4928946;29;20436;-86
2021/12/27 04:14:28;;;;;;;193.33;82.00;;;;;;;0.68;100.00;98745.13;4952168;29;20439;-88
2021/12/27 04:16:54;;;;;;;206.97;83.50;;;;;;;0.16;100.00;98621.94;4941437;29;20431;-87
2021/12/27 04:19:20;;;;;;;198.20;84.23;;;;;;;2.55;100.00;99022.75;4952077;29;20729;-86
2021/12/27 04:21:47;;;;;;;188.50;71.77;;;;;;;1.93;100.00;98915.16;4945599;29;20192;-88
2021/12/27 04:24:13;;;;;;;206.90;86.33;;;;;;;2.81;100.00;99029.47;4926196;29;20457;-88
2021/12/27 04:26:38;;;;;;;212.00;88.70;;;;;;;2.88;100.00;99025.00;4952025;29;20526;-87
2021/12/27 04:29:05;;;;;;;223.20;86.00;;;;;;;2.64;100.00;99032.47;4957727;28;20286;-87
2021/12/27 04:31:31;;;;;;;208.43;82.20;;;;;;;2.74;100.00;99032.34;4967904;28;20200;-87
2021/12/27 04:33:57;;;;;;;204.30;86.80;;;;;;;0.31;100.00;98645.41;4950684;28;20549;-88
2021/12/27 04:36:24;;;;;;;220.00;91.23;;;;;;;2.84;100.00;99029.69;4961279;28;20595;-88
2021/12/27 04:38:50;;;;;;;217.37;88.70;;;;;;;0.63;100.00;98670.09;4973824;28;20176;-88
2021/12/27 04:41:19;;;;;;;219.47;93.97;;;;;;;2.92;100.00;99016.06;4969978;28;20426;-87
2021/12/27 04:43:47;;;;;;;203.27;88.17;;;;;;;2.85;100.00;98994.81;4967817;28;20424;-87
2021/12/27 04:46:13;;;;;;;205.30;89.10;;;;;;;2.96;100.00;98996.41;4962765;28;20419;-87
2021/12/27 04:48:38;;;;;;;206.63;86.37;;;;;;;2.97;100.00;99045.63;4972496;28;20431;-85
2021/12/27 04:51:04;;;;;;;202.90;85.60;;;;;;;2.62;100.00;98949.91;4959416;28;20200;-88
2021/12/27 04:53:29;;;;;;;202.10;85.33;;;;;;;1.03;100.00;98648.78;4971185;28;20191;-88
2021/12/27 04:55:56;;;;;;;199.43;84.13;;;;;;;1.06;100.00;98653.97;4969176;28;20615;-87
2021/12/27 04:58:22;;;;;;;194.53;83.97;;;;;;;2.69;100.00;98928.72;4981155;28;20176;-86
2021/12/27 05:00:50;;;;;;;190.53;82.23;;;;;;;2.50;100.00;98889.13;4974297;28;20942;-88
2021/12/27 05:03:15;;;;;;;233.93;88.10;;;;;;;3.29;100.00;99001.88;4963922;28;20517;-87
2021/12/27 05:05:44;;;;;;;204.63;89.60;;;;;;;2.68;100.00;98915.34;4993757;28;20521;-88
2021/12/27 05:08:10;;;;;;;219.47;92.67;;;;;;;0.72;100.00;98552.78;4995746;28;20192;-86
2021/12/27 05:10:36;;;;;;;163.93;69.10;;;;;;;2.77;100.00;98985.94;4974182;28;20459;-87
2021/12/27 05:13:03;;;;;;;225.00;87.17;;;;;;;3.17;100.00;99013.56;4974343;28;20412;-87
2021/12/27 05:15:29;;;;;;;222.07;84.37;;;;;;;1.01;100.00;98697.66;4982593;28;20450;-88
2021/12/27 05:17:56;;;;;;;270.43;109.87;;;;;;;0.99;100.00;98680.09;4983468;28;20423;-85
2021/12/27 05:20:22;;;;;;;316.07;124.37;;;;;;;0.09;100.00;98557.56;4990001;28;20419;-86
2021/12/27 05:22:48;;;;;;;320.43;137.07;;;;;;;3.16;100.00;99036.84;4961428;28;20443;-87
2021/12/27 05:25:16;;;;;;;381.87;145.97;;;;;;;2.44;100.00;98926.22;4972040;28;20184;-87
2021/12/27 05:27:45;;;;;;;442.03;176.60;;;;;;;3.05;100.00;99045.28;4984912;28;20418;-86
2021/12/27 05:30:12;;;;;;;296.73;119.43;;;;;;;2.93;100.00;99018.69;4968574;28;20455;-86
2021/12/27 05:32:40;;;;;;;293.07;121.27;;;;;;;2.91;100.00;99036.84;4978257;28;20410;-87
2021/12/27 05:35:07;;;;;;;318.80;127.37;;;;;;;0.85;100.00;98695.72;4980377;28;20513;-89
2021/12/27 05:37:33;;;;;;;259.87;109.47;;;;;;;1.89;100.00;98909.13;4969999;28;20415;-88
2021/12/27 05:40:04;;;;;;;271.87;113.53;;;;;;;1.31;100.00;98777.03;4989070;28;20410;-87
2021/12/27 05:42:34;;;;;;;247.97;103.53;;;;;;;1.18;100.00;98789.41;4961707;28;20176;-86
2021/12/27 05:45:03;;;;;;;245.07;102.30;;;;;;;1.03;100.00;98750.94;4979109;28;20964;-86
2021/12/27 05:47:30;;;;;;;217.87;90.57;;;;;;;2.76;100.00;99039.19;4987772;28;20418;-87
2021/12/27 05:49:55;;;;;;;313.87;136.87;;;;;;;2.69;100.00;99044.50;4968667;28;20445;-87
2021/12/27 05:52:20;;;;;;;240.37;102.40;;;;;;;1.63;100.00;98804.16;4979762;28;20423;-86
2021/12/27 05:54:46;;;;;;;209.63;91.20;;;;;;;3.09;100.00;99052.19;4973194;28;20293;-87
2021/12/27 05:57:11;;;;;;;267.37;114.67;;;;;;;3.02;100.00;99053.44;4980347;28;20183;-88
2021/12/27 05:59:37;;;;;;;216.60;93.57;;;;;;;1.22;100.00;98701.59;4987889;28;20245;-87
2021/12/27 06:02:04;;;;;;;220.33;94.47;;;;;;;1.23;100.00;98688.41;4973678;28;20652;-86
2021/12/27 06:04:30;;;;;;;204.73;87.00;;;;;;;3.33;100.00;99036.31;4989409;28;20548;-87
2021/12/27 06:06:55;;;;;;;215.87;94.87;;;;;;;2.90;100.00;98963.50;4960746;28;20418;-85
2021/12/27 06:09:21;;;;;;;210.97;90.53;;;;;;;3.41;100.00;99050.19;4987684;28;20216;-87
2021/12/27 06:11:47;;;;;;;319.87;117.27;;;;;;;3.48;100.00;99037.31;4967238;28;20446;-86
2021/12/27 06:14:14;;;;;;;289.23;115.70;;;;;;;2.85;100.00;98904.84;4962911;28;20223;-85
2021/12/27 06:16:41;;;;;;;292.53;117.10;;;;;;;2.40;100.00;98826.88;4990513;28;20198;-85
2021/12/27 06:19:07;;;;;;;225.63;95.50;;;;;;;3.18;100.00;98947.78;4989536;28;20422;-85
2021/12/27 06:21:33;;;;;;;219.77;98.50;;;;;;;3.05;100.00;98931.09;4965102;28;20458;-87
2021/12/27 06:24:00;;;;;;;210.80;90.43;;;;;;;2.51;100.00;98810.94;4973035;28;20433;-88
2021/12/27 06:26:25;;;;;;;193.93;85.37;;;;;;;1.33;100.00;98573.56;4977402;28;20477;-88
2021/12/27 06:28:51;;;;;;;181.53;76.77;;;;;;;1.89;100.00;98683.66;4971603;28;20434;-88
2021/12/27 06:31:17;;;;;;;180.37;78.43;;;;;;;3.82;100.00;99000.31;4986789;28;20196;-88
2021/12/27 06:33:42;;;;;;;160.57;72.10;;;;;;;0.78;100.00;98476.00;4974851;28;20184;-87
2021/12/27 06:36:08;;;;;;;173.03;79.60;;;;;;;1.34;100.00;98599.38;4981939;28;20187;-88
2021/12/27 06:38:33;;;;;;;172.83;78.43;;;;;;;0.42;100.00;98427.13;4987758;28;20175;-86
2021/12/27 06:41:01;;;;;;;222.27;96.43;;;;;;;0.04;100.00;98337.50;4979417;28;20253;-85
2021/12/27 06:43:30;;;;;;;337.07;145.33;;;;;;;0.45;100.00;98383.41;4976937;28;20179;-88
2021/12/27 06:45:56;;;;;;;239.10;105.33;;;;;;;2.05;100.00;98662.31;4974684;28;20919;-88
2021/12/27 06:48:21;;;;;;;296.77;129.53;;;;;;;3.31;100.00;98825.25;4991065;28;20423;-86
2021/12/27 06:50:50;;;;;;;287.87;124.73;;;;;;;4.41;100.00;98983.94;4975328;28;20456;-85
2021/12/27 06:53:16;;;;;;;320.67;139.37;;;;;;;4.81;100.00;99040.72;4968043;28;20204;-86
2021/12/27 06:55:43;;;;;;;332.80;151.07;;;;;;;4.98;100.00;99040.09;4961295;28;20486;-89
2021/12/27 06:58:08;;;;;;;435.20;210.83;;;;;;;2.77;100.00;98680.19;4965719;28;20200;-87
2021/12/27 07:00:34;;;;;;;389.57;175.07;;;;;;;4.89;100.00;99029.50;4963673;28;20430;-86
2021/12/27 07:03:01;;;;;;;291.67;126.77;;;;;;;4.58;100.00;98961.66;4983961;28;20259;-89
2021/12/27 07:05:26;;;;;;;268.77;117.87;;;;;;;2.15;100.00;98588.84;4985656;28;20212;-88
2021/12/27 07:07:52;;;;;;;164.63;74.27;;;;;;;3.47;100.00;98761.25;4965105;28;20812;-88
2021/12/27 07:10:19;;;;;;;138.63;62.97;;;;;;;4.75;100.00;98976.03;4975057;28;20250;-88
2021/12/27 07:12:45;;;;;;;138.33;65.00;;;;;;;5.10;100.00;99033.28;4976070;28;20208;-88
2021/12/27 07:15:11;;;;;;;155.97;72.77;;;;;;;3.39;100.00;98714.00;4942628;28;20446;-86
2021/12/27 07:17:37;;;;;;;165.70;75.67;;;;;;;4.16;100.00;98802.13;4999354;28;20221;-88
2021/12/27 07:20:04;;;;;;;173.40;75.90;;;;;;;4.12;100.00;98835.25;5001034;28;20176;-88
2021/12/27 07:22:30;;;;;;;146.27;66.70;;;;;;;4.56;100.00;98918.06;4984972;28;20456;-88
2021/12/27 07:24:55;;;;;;;211.63;87.57;;;;;;;3.39;100.00;98687.38;4986322;28;20473;-87
2021/12/27 07:27:21;;;;;;;270.00;109.83;;;;;;;4.26;100.00;98845.25;4999816;28;20443;-87
2021/12/27 07:29:47;;;;;;;242.20;111.37;;;;;;;5.57;100.00;99043.56;4985997;28;20196;-88
2021/12/27 07:32:15;;;;;;;259.67;99.73;;;;;;;4.36;100.00;98808.31;4981728;28;20183;-87
2021/12/27 07:34:43;;;;;;;195.10;86.43;;;;;;;5.74;100.00;99057.09;4977959;28;20415;-86
2021/12/27 07:37:08;;;;;;;215.00;94.77;;;;;;;5.71;100.00;99036.81;4964379;28;20452;-88
2021/12/27 07:39:35;;;;;;;281.20;103.20;;;;;;;4.26;100.00;98821.03;4979698;28;20454;-87
2021/12/27 07:42:00;;;;;;;439.73;129.77;;;;;;;1.92;100.00;98414.38;5000031;28;20217;-89
2021/12/27 07:44:28;;;;;;;305.97;129.23;;;;;;;4.87;100.00;98968.38;4981175;28;20433;-89
2021/12/27 07:46:54;;;;;;;227.30;103.63;;;;;;;4.64;100.00;98865.91;4984019;28;20194;-88
2021/12/27 07:49:19;;;;;;;289.47;115.00;;;;;;;5.73;100.00;99051.19;5001235;28;20418;-89
2021/12/27 07:51:45;;;;;;;279.43;120.90;;;;;;;1.91;100.00;98442.59;4996975;28;20246;-88
2021/12/27 07:54:13;;;;;;;261.73;116.93;;;;;;;5.28;100.00;99010.91;5000217;28;20312;-91
2021/12/27 07:56:40;;;;;;;305.13;124.40;;;;;;;5.23;100.00;99078.38;4983028;28;20916;-88
2021/12/27 07:59:09;;;;;;;238.83;103.53;;;;;;;2.81;100.00;98633.00;4982589;28;20462;-88
2021/12/27 08:01:37;;;;;;;177.03;83.47;;;;;;;4.86;100.00;98920.66;4983284;28;20434;-88
2021/12/27 08:04:05;;;;;;;217.73;92.83;;;;;;;2.42;100.00;98524.78;4984153;28;20989;-90
2021/12/27 08:06:31;;;;;;;191.20;93.63;;;;;;;2.53;100.00;98514.66;4982297;28;20418;-86
2021/12/27 08:08:58;;;;;;;183.37;89.70;;;;;;;2.30;100.00;98395.06;4976098;28;20437;-89
2021/12/27 08:11:24;;;;;;;250.33;108.33;;;;;;;4.67;100.00;98851.88;4971441;28;20743;-88
2021/12/27 08:13:50;;;;;;;238.40;109.53;;;;;;;3.63;100.00;98657.06;4998025;28;20455;-88
2021/12/27 08:16:17;;;;;;;205.33;96.13;;;;;;;3.35;100.00;98567.88;4995156;28;20438;-89
2021/12/27 08:18:46;;;;;;;161.60;73.23;;;;;;;6.16;100.00;99072.06;4976636;28;20426;-88
2021/12/27 08:21:12;;;;;;;157.63;76.33;;;;;;;4.05;100.00;98672.91;4980125;28;20411;-86
2021/12/27 08:23:37;;;;;;;155.43;73.13;;;;;;;5.45;100.00;98904.81;4980861;28;20427;-88
2021/12/27 08:26:03;;;;;;;182.77;87.67;;;;;;;4.28;100.00;98728.47;5001446;28;20171;-87
2021/12/27 08:28:28;;;;;;;140.83;67.17;;;;;;;3.56;100.00;98615.81;4979935;28;20183;-88
2021/12/27 08:30:57;;;;;;;131.30;57.90;;;;;;;4.97;100.00;98892.88;4998175;28;20211;-90
2021/12/27 08:33:24;;;;;;;156.67;75.73;;;;;;;4.82;100.00;98810.91;4981714;28;20183;-88
2021/12/27 08:35:49;;;;;;;164.30;80.03;;;;;;;5.81;100.00;98971.25;4965435;28;20418;-88
2021/12/27 08:38:16;;;;;;;195.27;90.87;;;;;;;5.77;100.00;98936.69;4982234;28;20870;-88
2021/12/27 08:40:44;;;;;;;180.60;85.63;;;;;;;5.27;100.00;98824.34;4996774;28;20164;-88
2021/12/27 08:43:10;;;;;;;261.77;116.83;;;;;;;5.55;100.00;98830.88;4978987;28;20418;-89
2021/12/27 08:45:36;;;;;;;233.33;112.10;;;;;;;6.54;100.00;99004.59;4994484;28;21021;-89
2021/12/27 08:48:02;;;;;;;155.20;80.30;;;;;;;6.92;100.00;99035.94;4960156;28;20187;-87
2021/12/27 08:50:29;;;;;;;159.20;77.77;;;;;;;5.57;100.00;98782.50;4977310;28;20466;-87
2021/12/27 08:52:55;;;;;;;271.23;133.60;;;;;;;7.26;99.29;99023.41;4964718;28;20677;-88
2021/12/27 08:55:21;;;;;;;330.07;163.17;;;;;;;5.10;99.41;98634.44;4992666;28;20500;-87
2021/12/27 08:57:48;;;;;;;292.53;139.30;;;;;;;6.33;99.24;98887.84;4969920;28;20422;-88
2021/12/27 09:00:16;;;;;;;319.40;155.67;;;;;;;6.71;100.00;99019.72;4976682;28;20194;-86
2021/12/27 09:02:43;;;;;;;259.67;127.77;;;;;;;4.95;100.00;98718.00;4992920;28;20472;-87
2021/12/27 09:05:08;;;;;;;243.07;119.40;;;;;;;4.07;100.00;98641.31;4986097;28;20429;-86
2021/12/27 09:07:34;;;;;;;192.30;95.77;;;;;;;3.90;100.00;98544.34;4983963;28;20427;-86
2021/12/27 09:10:00;;;;;;;226.47;99.23;;;;;;;3.99;100.00;98592.44;4973451;28;20282;-87
2021/12/27 09:12:25;;;;;;;187.93;93.83;;;;;;;6.63;100.00;99000.84;4999666;28;20194;-83
2021/12/27 09:14:50;;;;;;;186.77;87.00;;;;;;;5.98;100.00;98899.34;5007513;28;20203;-85
2021/12/27 09:17:17;;;;;;;189.83;86.83;;;;;;;6.01;100.00;98945.59;4990575;28;20246;-87
2021/12/27 09:19:43;;;;;;;167.60;81.67;;;;;;;4.93;100.00;98745.53;4979551;28;20183;-88
2021/12/27 09:22:13;;;;;;;166.57;81.63;;;;;;;6.74;100.00;99009.81;4960232;28;20435;-86
2021/12/27 09:24:39;;;;;;;168.83;80.37;;;;;;;6.64;100.00;98983.34;4960356;28;20623;-87
2021/12/27 09:27:05;;;;;;;173.80;84.93;;;;;;;5.71;100.00;98806.66;4983268;28;20442;-86
2021/12/27 09:29:30;;;;;;;205.40;104.03;;;;;;;6.32;100.00;98901.19;4963191;28;20180;-89
2021/12/27 09:31:56;;;;;;;276.50;135.30;;;;;;;5.01;100.00;98696.66;4976042;28;20433;-87
2021/12/27 09:34:21;;;;;;;212.03;105.33;;;;;;;4.56;100.00;98632.34;4976078;28;20627;-86
2021/12/27 09:36:48;;;;;;;236.60;114.17;;;;;;;6.73;100.00;99008.94;4958611;28;20180;-85
2021/12/27 09:39:14;;;;;;;249.33;122.67;;;;;;;4.33;100.00;98571.75;4958314;28;20179;-87
2021/12/27 09:41:39;;;;;;;315.80;155.23;;;;;;;5.60;100.00;98777.63;4958390;28;20427;-87
2021/12/27 09:44:05;;;;;;;329.83;153.23;;;;;;;6.89;100.00;98985.47;4958410;28;20180;-86
2021/12/27 09:46:31;;;;;;;310.20;152.40;;;;;;;3.91;100.00;98541.09;4975493;28;20238;-86
2021/12/27 09:49:01;;;;;;;227.83;117.73;;;;;;;5.54;100.00;98776.44;4974778;28;20466;-85
2021/12/27 09:51:30;;;;;;;172.13;86.83;;;;;;;6.90;100.00;98977.09;4961940;28;20466;-86
2021/12/27 09:53:56;;;;;;;212.70;101.07;;;;;;;6.83;100.00;98990.19;4974959;28;20850;-85
2021/12/27 09:56:23;;;;;;;163.83;84.20;;;;;;;6.45;100.00;98991.56;4977437;28;20441;-86
2021/12/27 09:58:48;;;;;;;163.40;81.33;;;;;;;3.92;100.00;98557.84;4976237;28;20498;-87
2021/12/27 10:01:14;;;;;;;165.17;81.77;;;;;;;5.58;100.00;98790.84;4962065;28;20270;-88
2021/12/27 10:03:49;;;;;;;222.87;101.83;;;;;;;6.64;100.00;98982.47;4975432;28;20180;-86
2021/12/27 10:06:16;;;;;;;207.70;108.80;;;;;;;6.42;100.00;99003.97;4958092;28;20182;-85
2021/12/27 10:09:05;;;;;;;218.17;119.67;;;;;;;3.66;100.00;98507.97;4975845;28;20408;-86
2021/12/27 10:11:36;;;;;;;134.30;67.00;;;;;;;6.53;100.00;98960.16;4900314;29;20481;-87
2021/12/27 10:14:04;;;;;;;158.50;77.93;;;;;;;6.57;100.00;98960.28;4900230;29;20430;-85
2021/12/27 10:16:31;;;;;;;116.13;59.87;;;;;;;3.75;100.00;98553.53;4938502;29;20424;-86
2021/12/27 10:19:00;;;;;;;126.30;58.67;;;;;;;6.48;100.00;98966.56;4936081;29;20414;-88
2021/12/27 10:21:26;;;;;;;107.57;54.67;;;;;;;6.36;100.00;98960.03;4925169;29;20425;-88
2021/12/27 10:24:28;;;;;;;115.60;58.37;;;;;;;6.66;100.00;98945.69;4922391;29;20517;-87
2021/12/27 10:26:58;;;;;;;117.70;56.33;;;;;;;6.71;100.00;98944.25;4885057;29;20431;-87
2021/12/27 10:29:29;;;;;;;100.17;50.07;;;;;;;6.40;100.00;98934.28;4882189;29;20957;-86
2021/12/27 10:32:11;;;;;;;111.40;53.40;;;;;;;6.40;100.00;98934.28;4863690;29;20438;-86
2021/12/27 10:34:46;;;;;;;130.27;56.37;;;;;;;5.54;100.00;98802.41;4868884;29;20421;-87
2021/12/27 10:37:16;;;;;;;161.23;65.87;;;;;;;6.61;100.00;98932.88;4880860;29;20435;-86
2021/12/27 10:40:03;;;;;;;125.70;59.10;;;;;;;6.29;100.00;98922.81;4880730;29;20416;-87
2021/12/27 10:42:30;;;;;;;162.53;75.07;;;;;;;6.48;100.00;98930.53;4908665;29;20429;-85
2021/12/27 10:45:02;;;;;;;141.43;67.77;;;;;;;6.84;100.00;98917.28;4926202;29;20505;-86
2021/12/27 10:47:33;;;;;;;159.53;79.43;;;;;;;6.76;100.00;98918.56;4909240;29;20979;-86
2021/12/27 10:50:06;;;;;;;157.73;82.73;;;;;;;6.33;100.00;98859.34;4915448;29;20581;-87
2021/12/27 10:52:43;;;;;;;200.10;107.43;;;;;;;6.89;100.00;98905.81;4901889;29;20430;-88
2021/12/27 10:55:09;;;;;;;253.93;122.33;;;;;;;6.88;100.00;98905.72;4918203;29;20918;-86
2021/12/27 10:57:34;;;;;;;145.07;71.13;;;;;;;6.53;100.00;98843.63;4919387;29;20453;-88
2021/12/27 11:00:31;;;;;;;171.20;87.17;;;;;;;6.84;100.00;98898.84;4904138;29;20458;-87
2021/12/27 11:02:59;;;;;;;147.13;73.67;;;;;;;6.70;100.00;98898.16;4952454;28;20187;-87
2021/12/27 11:05:26;;;;;;;239.57;121.03;;;;;;;6.99;100.00;98897.94;4974241;28;20423;-86
2021/12/27 11:07:54;;;;;;;222.60;107.00;;;;;;;6.58;100.00;98813.66;4972664;28;20513;-87
2021/12/27 11:10:21;;;;;;;162.97;81.13;;;;;;;7.03;100.00;98887.22;4991915;28;20469;-87